createdAt,value
2023-06-19T00:00:04.583Z,957.99
2023-06-19T00:01:04.474Z,958.03
2023-06-19T00:02:04.531Z,958.06
2023-06-19T00:03:04.446Z,958.06
2023-06-19T00:04:04.417Z,958.08
2023-06-19T00:05:04.386Z,958.07
2023-06-19T00:06:04.364Z,958.11
2023-06-19T00:07:04.346Z,958.09
2023-06-19T00:08:04.325Z,958.07
2023-06-19T00:09:04.305Z,958.08
2023-06-19T00:10:04.283Z,958.11
2023-06-19T00:11:04.262Z,958.13
2023-06-19T00:12:04.246Z,958.11
2023-06-19T00:13:04.217Z,958.09
2023-06-19T00:14:04.209Z,958.10
2023-06-19T00:15:04.204Z,958.08
2023-06-19T00:16:04.216Z,958.06
2023-06-19T00:17:04.149Z,958.10
2023-06-19T00:18:04.213Z,958.11
2023-06-19T00:19:04.096Z,958.14
2023-06-19T00:20:04.078Z,958.14
2023-06-19T00:21:04.060Z,958.16
2023-06-19T00:22:04.033Z,958.21
2023-06-19T00:23:04.012Z,958.18
2023-06-19T00:24:04.038Z,958.19
2023-06-19T00:25:03.970Z,958.19
2023-06-19T00:26:03.950Z,958.21
2023-06-19T00:27:03.983Z,958.22
2023-06-19T00:28:03.909Z,958.21
2023-06-19T00:29:03.885Z,958.23
2023-06-19T00:30:03.873Z,958.25
2023-06-19T00:31:03.842Z,958.23
2023-06-19T00:32:03.823Z,958.30
2023-06-19T00:33:03.906Z,958.31
2023-06-19T00:34:03.799Z,958.35
2023-06-19T00:35:03.758Z,958.34
2023-06-19T00:36:03.742Z,958.38
2023-06-19T00:37:03.721Z,958.29
2023-06-19T00:38:03.701Z,958.28
2023-06-19T00:39:03.675Z,958.35
2023-06-19T00:40:03.655Z,958.38
2023-06-19T00:41:03.632Z,958.39
2023-06-19T00:42:03.611Z,958.43
2023-06-19T00:43:03.595Z,958.46
2023-06-19T00:44:03.570Z,958.47
2023-06-19T00:45:03.551Z,958.52
2023-06-19T00:46:03.599Z,958.56
2023-06-19T00:47:03.506Z,958.55
2023-06-19T00:48:03.511Z,958.63
2023-06-19T00:49:03.470Z,958.67
2023-06-19T00:50:03.472Z,958.67
2023-06-19T00:51:03.430Z,958.68
2023-06-19T00:52:03.413Z,958.71
2023-06-19T00:53:03.392Z,958.76
2023-06-19T00:54:03.372Z,958.73
2023-06-19T00:55:03.347Z,958.66
2023-06-19T00:56:03.328Z,958.61
2023-06-19T00:57:03.306Z,958.65
2023-06-19T00:58:03.295Z,958.62
2023-06-19T00:59:03.261Z,958.61
2023-06-19T01:00:03.243Z,958.62
2023-06-19T01:01:09.239Z,958.61
2023-06-19T01:02:03.287Z,958.62
2023-06-19T01:03:03.248Z,958.59
2023-06-19T01:04:03.256Z,958.61
2023-06-19T01:05:03.136Z,958.59
2023-06-19T01:06:03.141Z,958.58
2023-06-19T01:07:03.090Z,958.61
2023-06-19T01:08:03.095Z,958.58
2023-06-19T01:09:03.055Z,958.58
2023-06-19T01:10:03.029Z,958.62
2023-06-19T01:11:09.022Z,958.65
2023-06-19T01:12:02.990Z,958.66
2023-06-19T01:13:02.976Z,958.61
2023-06-19T01:14:02.944Z,958.61
2023-06-19T01:15:02.925Z,958.62
2023-06-19T01:16:02.905Z,958.63
2023-06-19T01:17:02.948Z,958.58
2023-06-19T01:18:02.910Z,958.59
2023-06-19T01:19:02.846Z,958.56
2023-06-19T01:20:02.818Z,958.51
2023-06-19T01:21:02.802Z,958.53
2023-06-19T01:22:02.803Z,958.52
2023-06-19T01:23:02.759Z,958.55
2023-06-19T01:24:02.764Z,958.56
2023-06-19T01:25:02.725Z,958.57
2023-06-19T01:26:02.693Z,958.59
2023-06-19T01:27:02.683Z,958.63
2023-06-19T01:28:02.655Z,958.66
2023-06-19T01:29:02.644Z,958.69
2023-06-19T01:30:02.613Z,958.71
2023-06-19T01:31:02.606Z,958.72
2023-06-19T01:32:02.572Z,958.77
2023-06-19T01:33:02.566Z,958.84
2023-06-19T01:34:02.547Z,958.79
2023-06-19T01:35:02.512Z,958.79
2023-06-19T01:36:02.494Z,958.84
2023-06-19T01:37:02.476Z,958.83
2023-06-19T01:38:02.576Z,958.91
2023-06-19T01:39:02.431Z,958.99
2023-06-19T01:40:02.416Z,959.08
2023-06-19T01:41:02.382Z,959.06
2023-06-19T01:42:02.364Z,959.15
2023-06-19T01:43:02.345Z,959.19
2023-06-19T01:44:02.319Z,959.22
2023-06-19T01:45:02.308Z,959.22
2023-06-19T01:46:02.317Z,959.26
2023-06-19T01:47:02.258Z,959.31
2023-06-19T01:48:02.280Z,959.32
2023-06-19T01:49:02.226Z,959.34
2023-06-19T01:50:02.249Z,959.38
2023-06-19T01:51:02.177Z,959.45
2023-06-19T01:52:02.153Z,959.45
2023-06-19T01:53:02.142Z,959.43
2023-06-19T01:54:02.144Z,959.51
2023-06-19T01:55:02.089Z,959.54
2023-06-19T01:56:02.076Z,959.57
2023-06-19T01:57:02.052Z,959.64
2023-06-19T01:58:02.037Z,959.66
2023-06-19T01:59:02.013Z,959.71
2023-06-19T02:00:02.015Z,959.77
2023-06-19T02:01:01.973Z,959.76
2023-06-19T02:02:01.938Z,959.79
2023-06-19T02:03:02.076Z,959.75
2023-06-19T02:04:02.062Z,959.69
2023-06-19T02:05:01.878Z,959.64
2023-06-19T02:06:01.908Z,959.69
2023-06-19T02:07:01.833Z,959.65
2023-06-19T02:08:01.813Z,959.64
2023-06-19T02:09:01.800Z,959.77
2023-06-19T02:10:01.798Z,959.78
2023-06-19T02:11:01.751Z,959.78
2023-06-19T02:12:01.735Z,959.80
2023-06-19T02:13:01.706Z,959.78
2023-06-19T02:14:01.688Z,959.80
2023-06-19T02:15:01.669Z,959.79
2023-06-19T02:16:01.671Z,959.79
2023-06-19T02:17:01.620Z,959.77
2023-06-19T02:18:01.669Z,959.83
2023-06-19T02:19:01.575Z,959.80
2023-06-19T02:20:01.583Z,959.80
2023-06-19T02:21:01.534Z,959.84
2023-06-19T02:22:01.524Z,959.81
2023-06-19T02:23:01.489Z,959.84
2023-06-19T02:24:01.492Z,959.91
2023-06-19T02:25:01.451Z,959.98
2023-06-19T02:26:01.444Z,960.03
2023-06-19T02:27:01.403Z,960.01
2023-06-19T02:28:01.400Z,959.99
2023-06-19T02:29:01.350Z,960.01
2023-06-19T02:30:01.328Z,959.94
2023-06-19T02:31:01.302Z,959.88
2023-06-19T02:32:01.280Z,959.91
2023-06-19T02:33:01.326Z,959.85
2023-06-19T02:34:01.236Z,959.87
2023-06-19T02:35:01.225Z,959.88
2023-06-19T02:36:01.194Z,959.92
2023-06-19T02:37:01.171Z,959.92
2023-06-19T02:38:01.141Z,959.98
2023-06-19T02:39:01.146Z,959.99
2023-06-19T02:40:01.095Z,960.00
2023-06-19T02:41:01.079Z,960.01
2023-06-19T02:42:01.062Z,960.01
2023-06-19T02:43:01.020Z,960.00
2023-06-19T02:44:01.000Z,960.02
2023-06-19T02:45:00.991Z,960.03
2023-06-19T02:46:01.018Z,960.04
2023-06-19T02:47:00.929Z,959.99
2023-06-19T02:48:00.935Z,960.01
2023-06-19T02:49:00.879Z,959.98
2023-06-19T02:50:00.865Z,960.00
2023-06-19T02:51:00.834Z,960.02
2023-06-19T02:52:00.813Z,959.98
2023-06-19T02:53:00.785Z,959.99
2023-06-19T02:54:00.767Z,960.01
2023-06-19T02:55:00.772Z,959.98
2023-06-19T02:56:00.724Z,959.96
2023-06-19T02:57:00.693Z,960.01
2023-06-19T02:58:00.712Z,960.00
2023-06-19T02:59:00.643Z,960.03
2023-06-19T03:00:00.628Z,960.04
2023-06-19T03:01:00.621Z,959.99
2023-06-19T03:02:00.573Z,959.90
2023-06-19T03:03:00.628Z,959.84
2023-06-19T03:04:00.523Z,959.76
2023-06-19T03:05:00.507Z,959.73
2023-06-19T03:06:00.488Z,959.69
2023-06-19T03:07:00.453Z,959.76
2023-06-19T03:08:00.440Z,959.81
2023-06-19T03:09:00.410Z,959.85
2023-06-19T03:10:00.396Z,959.91
2023-06-19T03:11:00.363Z,959.93
2023-06-19T03:12:00.331Z,960.00
2023-06-19T03:13:00.314Z,960.04
2023-06-19T03:14:00.307Z,960.07
2023-06-19T03:15:00.276Z,960.10
2023-06-19T03:16:00.238Z,960.17
2023-06-19T03:17:00.355Z,960.20
2023-06-19T03:18:00.226Z,960.17
2023-06-19T03:19:00.171Z,960.12
2023-06-19T03:20:00.186Z,960.11
2023-06-19T03:21:00.121Z,960.13
2023-06-19T03:22:00.176Z,960.19
2023-06-19T03:23:00.091Z,960.27
2023-06-19T03:24:00.070Z,960.25
2023-06-19T03:25:00.045Z,960.27
2023-06-19T03:26:00.012Z,960.40
2023-06-19T03:27:00.009Z,960.42
2023-06-19T03:27:59.961Z,960.42
2023-06-19T03:28:59.938Z,960.41
2023-06-19T03:29:59.941Z,960.40
2023-06-19T03:30:59.893Z,960.42
2023-06-19T03:31:59.885Z,960.44
2023-06-19T03:32:59.889Z,960.39
2023-06-19T03:33:59.830Z,960.33
2023-06-19T03:34:59.800Z,960.31
2023-06-19T03:35:59.776Z,960.37
2023-06-19T03:36:59.765Z,960.40
2023-06-19T03:37:59.731Z,960.39
2023-06-19T03:38:59.709Z,960.38
2023-06-19T03:39:59.684Z,960.34
2023-06-19T03:40:59.662Z,960.33
2023-06-19T03:41:59.654Z,960.36
2023-06-19T03:42:59.629Z,960.34
2023-06-19T03:43:59.590Z,960.35
2023-06-19T03:44:59.572Z,960.33
2023-06-19T03:45:59.609Z,960.30
2023-06-19T03:46:59.523Z,960.34
2023-06-19T03:47:59.616Z,960.39
2023-06-19T03:48:59.508Z,960.37
2023-06-19T03:50:11.156Z,960.42
2023-06-19T03:50:59.432Z,960.42
2023-06-19T03:51:59.417Z,960.42
2023-06-19T03:52:59.405Z,960.45
2023-06-19T03:53:59.365Z,960.51
2023-06-19T03:54:59.355Z,960.56
2023-06-19T03:55:59.339Z,960.54
2023-06-19T03:56:59.295Z,960.62
2023-06-19T03:57:59.275Z,960.62
2023-06-19T03:58:59.251Z,960.59
2023-06-19T03:59:59.226Z,960.61
2023-06-19T04:00:59.209Z,960.61
2023-06-19T04:01:59.338Z,960.62
2023-06-19T04:02:59.258Z,960.66
2023-06-19T04:03:59.167Z,960.68
2023-06-19T04:04:59.116Z,960.72
2023-06-19T04:05:59.093Z,960.70
2023-06-19T04:06:59.069Z,960.70
2023-06-19T04:07:59.043Z,960.74
2023-06-19T04:08:59.023Z,960.77
2023-06-19T04:09:58.998Z,960.78
2023-06-19T04:10:58.990Z,960.79
2023-06-19T04:11:58.960Z,960.80
2023-06-19T04:12:58.932Z,960.80
2023-06-19T04:13:58.906Z,960.79
2023-06-19T04:14:58.885Z,960.81
2023-06-19T04:15:58.870Z,960.91
2023-06-19T04:16:58.845Z,960.99
2023-06-19T04:17:58.847Z,960.93
2023-06-19T04:18:58.803Z,960.92
2023-06-19T04:19:58.786Z,960.95
2023-06-19T04:20:58.798Z,960.97
2023-06-19T04:21:58.733Z,961.01
2023-06-19T04:22:58.708Z,961.05
2023-06-19T04:23:58.730Z,960.99
2023-06-19T04:24:58.665Z,960.99
2023-06-19T04:25:58.638Z,961.00
2023-06-19T04:26:58.638Z,961.00
2023-06-19T04:27:58.591Z,961.01
2023-06-19T04:28:58.579Z,960.92
2023-06-19T04:29:58.554Z,960.90
2023-06-19T04:30:58.528Z,960.91
2023-06-19T04:31:58.502Z,960.88
2023-06-19T04:32:58.575Z,960.91
2023-06-19T04:33:58.489Z,960.91
2023-06-19T04:34:58.448Z,960.92
2023-06-19T04:35:58.409Z,960.86
2023-06-19T04:36:58.388Z,960.83
2023-06-19T04:37:58.370Z,960.84
2023-06-19T04:38:58.341Z,960.86
2023-06-19T04:39:58.325Z,960.85
2023-06-19T04:40:58.296Z,960.83
2023-06-19T04:41:58.274Z,960.82
2023-06-19T04:42:58.264Z,960.82
2023-06-19T04:43:58.228Z,960.82
2023-06-19T04:44:58.213Z,960.83
2023-06-19T04:45:58.245Z,960.85
2023-06-19T04:46:58.161Z,960.87
2023-06-19T04:47:58.213Z,960.90
2023-06-19T04:48:58.112Z,960.84
2023-06-19T04:49:58.124Z,960.83
2023-06-19T04:50:58.070Z,960.81
2023-06-19T04:51:58.049Z,960.84
2023-06-19T04:52:58.024Z,960.88
2023-06-19T04:53:57.999Z,960.88
2023-06-19T04:54:57.979Z,960.89
2023-06-19T04:55:58.772Z,960.91
2023-06-19T04:56:57.934Z,960.95
2023-06-19T04:57:57.911Z,961.01
2023-06-19T04:58:57.886Z,960.98
2023-06-19T04:59:57.872Z,960.97
2023-06-19T05:00:57.842Z,961.01
2023-06-19T05:01:57.860Z,961.02
2023-06-19T05:02:57.816Z,960.98
2023-06-19T05:03:57.800Z,961.03
2023-06-19T05:04:57.753Z,961.01
2023-06-19T05:05:57.752Z,961.03
2023-06-19T05:06:57.710Z,961.02
2023-06-19T05:07:57.705Z,961.05
2023-06-19T05:08:57.669Z,961.04
2023-06-19T05:09:57.645Z,961.05
2023-06-19T05:10:57.641Z,960.99
2023-06-19T05:11:57.596Z,960.99
2023-06-19T05:12:57.576Z,960.94
2023-06-19T05:13:57.552Z,960.91
2023-06-19T05:14:57.529Z,960.90
2023-06-19T05:15:57.563Z,960.86
2023-06-19T05:16:57.531Z,960.87
2023-06-19T05:17:57.566Z,960.82
2023-06-19T05:18:57.438Z,960.80
2023-06-19T05:19:57.443Z,960.80
2023-06-19T05:20:57.399Z,960.82
2023-06-19T05:21:57.400Z,960.77
2023-06-19T05:22:57.348Z,960.74
2023-06-19T05:23:57.331Z,960.71
2023-06-19T05:24:57.309Z,960.68
2023-06-19T05:25:57.280Z,960.60
2023-06-19T05:26:57.257Z,960.57
2023-06-19T05:27:57.236Z,960.62
2023-06-19T05:28:57.212Z,960.59
2023-06-19T05:29:57.192Z,960.68
2023-06-19T05:30:57.173Z,960.70
2023-06-19T05:31:57.158Z,960.65
2023-06-19T05:32:57.213Z,960.64
2023-06-19T05:33:57.114Z,960.61
2023-06-19T05:34:57.085Z,960.61
2023-06-19T05:35:57.059Z,960.65
2023-06-19T05:36:57.040Z,960.65
2023-06-19T05:37:57.036Z,960.64
2023-06-19T05:38:56.984Z,960.60
2023-06-19T05:39:56.963Z,960.60
2023-06-19T05:40:56.992Z,960.57
2023-06-19T05:41:56.917Z,960.58
2023-06-19T05:42:56.904Z,960.59
2023-06-19T05:43:56.874Z,960.61
2023-06-19T05:44:56.850Z,960.54
2023-06-19T05:45:57.013Z,960.55
2023-06-19T05:46:56.807Z,960.58
2023-06-19T05:47:56.817Z,960.58
2023-06-19T05:48:56.758Z,960.56
2023-06-19T05:49:56.735Z,960.61
2023-06-19T05:50:56.715Z,960.58
2023-06-19T05:51:56.693Z,960.61
2023-06-19T05:52:56.673Z,960.61
2023-06-19T05:53:56.667Z,960.60
2023-06-19T05:54:56.667Z,960.57
2023-06-19T05:55:56.601Z,960.55
2023-06-19T05:56:56.581Z,960.57
2023-06-19T05:57:56.559Z,960.57
2023-06-19T05:58:56.533Z,960.53
2023-06-19T05:59:56.511Z,960.54
2023-06-19T06:00:56.494Z,960.45
2023-06-19T06:01:56.489Z,960.46
2023-06-19T06:02:56.455Z,960.44
2023-06-19T06:03:56.423Z,960.42
2023-06-19T06:04:56.414Z,960.42
2023-06-19T06:05:56.374Z,960.37
2023-06-19T06:06:56.352Z,960.37
2023-06-19T06:07:56.328Z,960.38
2023-06-19T06:08:56.362Z,960.34
2023-06-19T06:09:56.305Z,960.35
2023-06-19T06:10:56.261Z,960.40
2023-06-19T06:11:56.240Z,960.37
2023-06-19T06:12:56.222Z,960.36
2023-06-19T06:13:56.193Z,960.34
2023-06-19T06:14:56.173Z,960.33
2023-06-19T06:15:56.158Z,960.32
2023-06-19T06:16:56.204Z,960.34
2023-06-19T06:17:56.211Z,960.34
2023-06-19T06:18:56.087Z,960.31
2023-06-19T06:19:56.062Z,960.33
2023-06-19T06:20:56.039Z,960.24
2023-06-19T06:21:56.021Z,960.29
2023-06-19T06:22:56.005Z,960.28
2023-06-19T06:23:56.041Z,960.27
2023-06-19T06:24:55.960Z,960.26
2023-06-19T06:25:55.944Z,960.30
2023-06-19T06:26:55.906Z,960.31
2023-06-19T06:27:55.888Z,960.34
2023-06-19T06:28:55.861Z,960.29
2023-06-19T06:29:55.858Z,960.31
2023-06-19T06:30:55.813Z,960.33
2023-06-19T06:31:55.798Z,960.34
2023-06-19T06:32:55.816Z,960.40
2023-06-19T06:33:55.754Z,960.35
2023-06-19T06:34:55.730Z,960.40
2023-06-19T06:35:55.712Z,960.43
2023-06-19T06:37:05.233Z,960.47
2023-06-19T06:37:55.656Z,960.49
2023-06-19T06:38:55.636Z,960.52
2023-06-19T06:39:55.612Z,960.47
2023-06-19T06:40:55.592Z,960.47
2023-06-19T06:41:55.625Z,960.52
2023-06-19T06:42:55.550Z,960.50
2023-06-19T06:43:55.531Z,960.52
2023-06-19T06:44:55.508Z,960.52
2023-06-19T06:45:55.499Z,960.50
2023-06-19T06:46:55.456Z,960.49
2023-06-19T06:47:55.485Z,960.49
2023-06-19T06:48:55.413Z,960.51
2023-06-19T06:49:55.391Z,960.53
2023-06-19T06:50:55.371Z,960.52
2023-06-19T06:51:57.660Z,960.55
2023-06-19T06:52:55.333Z,960.54
2023-06-19T06:53:55.304Z,960.56
2023-06-19T06:54:55.280Z,960.52
2023-06-19T06:55:55.261Z,960.54
2023-06-19T06:56:55.237Z,960.57
2023-06-19T06:57:55.241Z,960.52
2023-06-19T06:58:55.197Z,960.53
2023-06-19T06:59:55.173Z,960.51
2023-06-19T07:00:55.198Z,960.49
2023-06-19T07:01:55.158Z,960.54
2023-06-19T07:02:55.255Z,960.51
2023-06-19T07:03:55.648Z,960.54
2023-06-19T07:04:55.068Z,960.52
2023-06-19T07:05:55.049Z,960.51
2023-06-19T07:06:55.031Z,960.55
2023-06-19T07:07:55.012Z,960.50
2023-06-19T07:08:54.984Z,960.49
2023-06-19T07:09:54.990Z,960.49
2023-06-19T07:10:54.950Z,960.48
2023-06-19T07:11:54.925Z,960.47
2023-06-19T07:12:54.903Z,960.40
2023-06-19T07:13:54.990Z,960.38
2023-06-19T07:14:54.858Z,960.38
2023-06-19T07:15:54.838Z,960.40
2023-06-19T07:16:54.852Z,960.37
2023-06-19T07:17:54.858Z,960.36
2023-06-19T07:18:54.792Z,960.34
2023-06-19T07:19:54.767Z,960.34
2023-06-19T07:20:54.735Z,960.35
2023-06-19T07:21:54.719Z,960.31
2023-06-19T07:22:54.697Z,960.32
2023-06-19T07:23:54.683Z,960.34
2023-06-19T07:24:54.652Z,960.30
2023-06-19T07:25:54.636Z,960.27
2023-06-19T07:26:54.619Z,960.23
2023-06-19T07:27:54.591Z,960.24
2023-06-19T07:28:54.575Z,960.24
2023-06-19T07:29:54.575Z,960.21
2023-06-19T07:30:54.531Z,960.19
2023-06-19T07:31:54.509Z,960.16
2023-06-19T07:32:54.551Z,960.13
2023-06-19T07:33:54.467Z,960.13
2023-06-19T07:34:54.449Z,960.09
2023-06-19T07:35:54.430Z,960.07
2023-06-19T07:36:54.406Z,960.01
2023-06-19T07:37:54.400Z,960.03
2023-06-19T07:38:54.366Z,959.99
2023-06-19T07:39:54.352Z,959.99
2023-06-19T07:40:54.326Z,959.97
2023-06-19T07:41:54.305Z,959.95
2023-06-19T07:42:54.302Z,959.96
2023-06-19T07:43:54.268Z,959.92
2023-06-19T07:44:54.243Z,959.89
2023-06-19T07:45:54.332Z,959.84
2023-06-19T07:46:54.203Z,959.90
2023-06-19T07:47:54.199Z,959.88
2023-06-19T07:48:54.169Z,959.87
2023-06-19T07:49:54.147Z,959.87
2023-06-19T07:50:54.125Z,959.86
2023-06-19T07:51:54.106Z,959.87
2023-06-19T07:52:54.087Z,959.91
2023-06-19T07:53:54.068Z,959.87
2023-06-19T07:54:54.047Z,959.87
2023-06-19T07:55:54.026Z,959.84
2023-06-19T07:56:54.007Z,959.87
2023-06-19T07:57:53.987Z,959.88
2023-06-19T07:58:53.969Z,959.87
2023-06-19T07:59:53.945Z,959.88
2023-06-19T08:00:53.929Z,959.91
2023-06-19T08:01:53.928Z,959.85
2023-06-19T08:02:54.010Z,959.85
2023-06-19T08:03:53.983Z,959.84
2023-06-19T08:04:53.892Z,959.84
2023-06-19T08:05:53.825Z,959.81
2023-06-19T08:06:53.803Z,959.83
2023-06-19T08:07:53.784Z,959.81
2023-06-19T08:08:53.764Z,959.79
2023-06-19T08:10:00.598Z,959.82
2023-06-19T08:10:53.730Z,959.80
2023-06-19T08:11:53.703Z,959.74
2023-06-19T08:12:54.377Z,959.77
2023-06-19T08:13:53.660Z,959.82
2023-06-19T08:14:53.643Z,959.83
2023-06-19T08:15:53.627Z,959.80
2023-06-19T08:16:53.652Z,959.80
2023-06-19T08:17:53.740Z,959.81
2023-06-19T08:18:53.561Z,959.80
2023-06-19T08:19:53.542Z,959.79
2023-06-19T08:20:53.516Z,959.82
2023-06-19T08:21:53.518Z,959.82
2023-06-19T08:22:53.498Z,959.86
2023-06-19T08:23:53.486Z,959.90
2023-06-19T08:24:53.445Z,959.91
2023-06-19T08:25:53.452Z,959.91
2023-06-19T08:26:53.416Z,959.89
2023-06-19T08:27:53.377Z,959.90
2023-06-19T08:28:53.353Z,959.87
2023-06-19T08:29:53.339Z,959.86
2023-06-19T08:30:53.313Z,959.85
2023-06-19T08:31:53.293Z,959.83
2023-06-19T08:32:53.305Z,959.82
2023-06-19T08:33:54.779Z,959.89
2023-06-19T08:34:53.230Z,959.86
2023-06-19T08:35:53.211Z,959.86
2023-06-19T08:36:53.193Z,959.88
2023-06-19T08:37:53.169Z,959.87
2023-06-19T08:38:53.156Z,959.89
2023-06-19T08:39:53.149Z,959.94
2023-06-19T08:40:53.112Z,959.88
2023-06-19T08:41:53.095Z,959.90
2023-06-19T08:42:53.080Z,959.88
2023-06-19T08:43:53.063Z,959.88
2023-06-19T08:44:53.034Z,959.83
2023-06-19T08:45:53.038Z,959.82
2023-06-19T08:46:52.990Z,959.84
2023-06-19T08:47:52.977Z,959.88
2023-06-19T08:48:52.969Z,959.84
2023-06-19T08:49:52.958Z,959.86
2023-06-19T08:50:52.912Z,959.85
2023-06-19T08:51:52.893Z,959.87
2023-06-19T08:52:52.872Z,959.87
2023-06-19T08:53:52.855Z,959.84
2023-06-19T08:54:52.834Z,959.81
2023-06-19T08:55:52.816Z,959.81
2023-06-19T08:56:52.832Z,959.85
2023-06-19T08:57:52.775Z,959.85
2023-06-19T08:58:52.753Z,959.86
2023-06-19T08:59:52.738Z,959.91
2023-06-19T09:00:52.716Z,959.87
2023-06-19T09:01:52.708Z,959.85
2023-06-19T09:03:52.811Z,959.85
2023-06-19T09:04:52.637Z,959.84
2023-06-19T09:05:52.813Z,959.86
2023-06-19T09:06:52.685Z,959.84
2023-06-19T09:07:52.577Z,959.85
2023-06-19T09:08:52.580Z,959.79
2023-06-19T09:09:52.537Z,959.78
2023-06-19T09:10:52.518Z,959.82
2023-06-19T09:11:52.497Z,959.76
2023-06-19T09:12:52.480Z,959.76
2023-06-19T09:13:52.457Z,959.78
2023-06-19T09:14:52.450Z,959.78
2023-06-19T09:15:52.415Z,959.81
2023-06-19T09:16:52.402Z,959.78
2023-06-19T09:17:52.383Z,959.79
2023-06-19T09:18:52.355Z,959.81
2023-06-19T09:19:52.363Z,959.82
2023-06-19T09:20:52.324Z,959.81
2023-06-19T09:21:52.324Z,959.80
2023-06-19T09:22:52.281Z,959.81
2023-06-19T09:23:52.272Z,959.80
2023-06-19T09:24:52.292Z,959.80
2023-06-19T09:25:52.232Z,959.79
2023-06-19T09:26:52.196Z,959.80
2023-06-19T09:27:52.176Z,959.75
2023-06-19T09:28:52.162Z,959.74
2023-06-19T09:29:52.366Z,959.77
2023-06-19T09:30:52.118Z,959.76
2023-06-19T09:31:52.103Z,959.74
2023-06-19T09:32:52.131Z,959.73
2023-06-19T09:33:52.077Z,959.72
2023-06-19T09:34:52.174Z,959.69
2023-06-19T09:35:52.019Z,959.67
2023-06-19T09:36:52.006Z,959.67
2023-06-19T09:37:52.005Z,959.64
2023-06-19T09:38:51.961Z,959.65
2023-06-19T09:39:51.942Z,959.68
2023-06-19T09:40:51.921Z,959.64
2023-06-19T09:41:51.902Z,959.62
2023-06-19T09:42:51.884Z,959.61
2023-06-19T09:43:51.863Z,959.62
2023-06-19T09:44:51.866Z,959.57
2023-06-19T09:45:51.834Z,959.60
2023-06-19T09:46:51.845Z,959.60
2023-06-19T09:47:51.876Z,959.58
2023-06-19T09:48:51.769Z,959.63
2023-06-19T09:49:51.752Z,959.59
2023-06-19T09:50:51.740Z,959.63
2023-06-19T09:51:51.719Z,959.56
2023-06-19T09:52:51.691Z,959.56
2023-06-19T09:53:51.712Z,959.60
2023-06-19T09:54:51.651Z,959.59
2023-06-19T09:55:51.637Z,959.55
2023-06-19T09:56:51.615Z,959.56
2023-06-19T09:57:51.588Z,959.53
2023-06-19T09:58:51.572Z,959.51
2023-06-19T09:59:51.566Z,959.54
2023-06-19T10:00:51.547Z,959.45
2023-06-19T10:01:51.516Z,959.43
2023-06-19T10:02:51.607Z,959.42
2023-06-19T10:03:51.502Z,959.42
2023-06-19T10:04:51.461Z,959.41
2023-06-19T10:05:51.440Z,959.40
2023-06-19T10:06:51.424Z,959.35
2023-06-19T10:07:51.404Z,959.35
2023-06-19T10:08:51.390Z,959.33
2023-06-19T10:09:51.401Z,959.33
2023-06-19T10:10:51.352Z,959.33
2023-06-19T10:11:51.326Z,959.28
2023-06-19T10:12:51.311Z,959.28
2023-06-19T10:13:51.288Z,959.29
2023-06-19T10:14:51.271Z,959.30
2023-06-19T10:15:51.263Z,959.29
2023-06-19T10:16:51.323Z,959.29
2023-06-19T10:17:51.279Z,959.31
2023-06-19T10:18:51.198Z,959.29
2023-06-19T10:19:51.179Z,959.27
2023-06-19T10:20:51.164Z,959.28
2023-06-19T10:21:51.191Z,959.29
2023-06-19T10:22:51.123Z,959.30
2023-06-19T10:23:51.103Z,959.27
2023-06-19T10:24:51.088Z,959.24
2023-06-19T10:25:51.093Z,959.27
2023-06-19T10:26:51.049Z,959.25
2023-06-19T10:27:51.033Z,959.28
2023-06-19T10:28:51.014Z,959.27
2023-06-19T10:29:52.732Z,959.27
2023-06-19T10:30:51.014Z,959.28
2023-06-19T10:31:50.969Z,959.25
2023-06-19T10:32:50.953Z,959.26
2023-06-19T10:33:50.923Z,959.29
2023-06-19T10:34:50.914Z,959.27
2023-06-19T10:35:50.885Z,959.26
2023-06-19T10:36:50.869Z,959.30
2023-06-19T10:37:50.849Z,959.31
2023-06-19T10:38:50.938Z,959.25
2023-06-19T10:39:50.823Z,959.25
2023-06-19T10:40:50.804Z,959.25
2023-06-19T10:41:50.793Z,959.28
2023-06-19T10:42:50.760Z,959.26
2023-06-19T10:43:50.741Z,959.25
2023-06-19T10:44:50.722Z,959.19
2023-06-19T10:45:50.766Z,959.22
2023-06-19T10:46:50.685Z,959.23
2023-06-19T10:47:50.731Z,959.22
2023-06-19T10:48:50.650Z,959.24
2023-06-19T10:49:50.644Z,959.22
2023-06-19T10:50:50.612Z,959.19
2023-06-19T10:51:50.595Z,959.20
2023-06-19T10:52:50.578Z,959.20
2023-06-19T10:53:50.560Z,959.20
2023-06-19T10:54:50.541Z,959.17
2023-06-19T10:55:50.523Z,959.18
2023-06-19T10:56:50.506Z,959.18
2023-06-19T10:57:50.510Z,959.14
2023-06-19T10:58:50.471Z,959.15
2023-06-19T10:59:50.467Z,959.13
2023-06-19T11:00:50.433Z,959.12
2023-06-19T11:01:50.413Z,959.12
2023-06-19T11:02:50.487Z,959.10
2023-06-19T11:03:50.381Z,959.11
2023-06-19T11:04:50.362Z,959.07
2023-06-19T11:05:50.357Z,959.07
2023-06-19T11:06:50.353Z,959.03
2023-06-19T11:07:50.308Z,959.05
2023-06-19T11:08:50.297Z,959.02
2023-06-19T11:09:50.276Z,959.01
2023-06-19T11:10:50.254Z,959.02
2023-06-19T11:11:50.238Z,959.01
2023-06-19T11:12:50.235Z,959.04
2023-06-19T11:13:50.228Z,959.04
2023-06-19T11:14:50.183Z,959.02
2023-06-19T11:15:50.194Z,958.96
2023-06-19T11:16:50.173Z,958.99
2023-06-19T11:17:50.177Z,958.95
2023-06-19T11:18:50.115Z,958.93
2023-06-19T11:19:50.109Z,958.96
2023-06-19T11:20:50.087Z,958.93
2023-06-19T11:21:50.158Z,958.94
2023-06-19T11:22:50.047Z,958.92
2023-06-19T11:23:50.032Z,958.95
2023-06-19T11:24:50.009Z,958.90
2023-06-19T11:25:49.997Z,958.87
2023-06-19T11:26:49.977Z,958.86
2023-06-19T11:27:49.960Z,958.85
2023-06-19T11:28:49.940Z,958.88
2023-06-19T11:29:49.944Z,958.86
2023-06-19T11:30:49.927Z,958.87
2023-06-19T11:31:50.001Z,958.87
2023-06-19T11:32:49.979Z,958.84
2023-06-19T11:33:49.859Z,958.83
2023-06-19T11:34:49.835Z,958.82
2023-06-19T11:35:49.928Z,958.78
2023-06-19T11:36:49.803Z,958.83
2023-06-19T11:37:49.789Z,958.79
2023-06-19T11:38:49.767Z,958.80
2023-06-19T11:39:49.750Z,958.78
2023-06-19T11:40:49.733Z,958.77
2023-06-19T11:41:49.716Z,958.78
2023-06-19T11:42:49.706Z,958.72
2023-06-19T11:43:49.687Z,958.73
2023-06-19T11:44:49.666Z,958.75
2023-06-19T11:45:49.721Z,958.73
2023-06-19T11:46:49.671Z,958.69
2023-06-19T11:47:49.649Z,958.67
2023-06-19T11:49:06.262Z,958.66
2023-06-19T11:49:49.580Z,958.59
2023-06-19T11:50:49.561Z,958.57
2023-06-19T11:51:49.547Z,958.56
2023-06-19T11:52:49.537Z,958.54
2023-06-19T11:53:49.512Z,958.52
2023-06-19T11:54:49.496Z,958.51
2023-06-19T11:55:49.477Z,958.49
2023-06-19T11:56:49.470Z,958.45
2023-06-19T11:57:49.447Z,958.45
2023-06-19T11:58:49.433Z,958.47
2023-06-19T11:59:49.413Z,958.48
2023-06-19T12:00:49.417Z,958.43
2023-06-19T12:01:49.419Z,958.41
2023-06-19T12:02:49.457Z,958.45
2023-06-19T12:03:49.619Z,958.42
2023-06-19T12:04:49.388Z,958.41
2023-06-19T12:05:49.315Z,958.39
2023-06-19T12:06:49.299Z,958.41
2023-06-19T12:07:49.281Z,958.38
2023-06-19T12:08:49.267Z,958.39
2023-06-19T12:09:49.263Z,958.36
2023-06-19T12:10:49.259Z,958.37
2023-06-19T12:11:49.231Z,958.45
2023-06-19T12:12:49.203Z,958.41
2023-06-19T12:13:49.182Z,958.42
2023-06-19T12:14:49.170Z,958.41
2023-06-19T12:15:49.169Z,958.43
2023-06-19T12:16:49.219Z,958.43
2023-06-19T12:17:49.310Z,958.39
2023-06-19T12:18:49.111Z,958.37
2023-06-19T12:19:49.088Z,958.35
2023-06-19T12:20:49.074Z,958.38
2023-06-19T12:21:49.056Z,958.40
2023-06-19T12:22:49.048Z,958.39
2023-06-19T12:23:49.041Z,958.39
2023-06-19T12:24:49.009Z,958.34
2023-06-19T12:25:48.992Z,958.32
2023-06-19T12:26:48.983Z,958.30
2023-06-19T12:27:48.960Z,958.28
2023-06-19T12:28:49.954Z,958.25